Time;durP1;ratioP1;P1;durP2;ratioP2;P2;SDS_P1;SDS_P2;PMS_P1;PMS_P2;Temp;Humidity;BMP_temperature;BMP_pressure;BME280_temperature;BME280_humidity;BME280_pressure;Samples;Min_cycle;Max_cycle;Signal;HPM_P1;HPM_P2
2021/06/16 00:00:13;;;;;;;0.40;0.20;;;18.00;95.60;;;;;;4973760;28;20816;-75
2021/06/16 00:02:40;;;;;;;0.40;0.30;;;17.80;95.80;;;;;;4972934;28;20406;-75
2021/06/16 00:05:14;;;;;;;0.40;0.20;;;17.80;97.00;;;;;;4973185;28;21034;-75
2021/06/16 00:07:40;;;;;;;0.40;0.30;;;17.80;97.10;;;;;;4972995;28;20428;-77
2021/06/16 00:10:08;;;;;;;0.40;0.30;;;17.80;96.50;;;;;;4973707;28;20769;-76
2021/06/16 00:12:34;;;;;;;0.40;0.30;;;17.90;96.50;;;;;;4972763;28;20526;-76
2021/06/16 00:15:00;;;;;;;0.40;0.30;;;17.90;96.50;;;;;;4972616;28;20507;-76
2021/06/16 00:17:26;;;;;;;0.40;0.20;;;17.80;96.10;;;;;;4972856;28;20457;-76
2021/06/16 00:19:51;;;;;;;0.40;0.20;;;17.70;96.40;;;;;;4972809;28;20680;-76
2021/06/16 00:22:17;;;;;;;0.40;0.20;;;17.70;96.80;;;;;;4972629;28;20462;-78
2021/06/16 00:24:43;;;;;;;0.40;0.20;;;17.70;96.60;;;;;;4974310;28;20407;-74
2021/06/16 00:27:09;;;;;;;0.40;0.20;;;17.70;96.20;;;;;;4975307;28;20479;-74
2021/06/16 00:29:34;;;;;;;0.50;0.40;;;17.80;96.50;;;;;;4972739;28;20487;-77
2021/06/16 00:32:00;;;;;;;0.40;0.27;;;17.70;96.20;;;;;;4973295;28;20405;-77
2021/06/16 00:34:26;;;;;;;0.40;0.20;;;17.70;96.40;;;;;;4954844;28;20931;-77
2021/06/16 00:36:52;;;;;;;0.40;0.20;;;17.60;96.60;;;;;;4955258;28;20400;-77
2021/06/16 00:39:18;;;;;;;0.40;0.20;;;17.60;96.50;;;;;;4972597;28;20487;-81
2021/06/16 00:41:44;;;;;;;0.40;0.20;;;17.60;96.40;;;;;;4955639;28;20399;-74
2021/06/16 00:44:11;;;;;;;0.40;0.30;;;17.60;96.50;;;;;;4954679;28;20428;-77
2021/06/16 00:46:37;;;;;;;0.40;0.20;;;17.50;97.10;;;;;;4954621;28;20484;-75
2021/06/16 00:49:05;;;;;;;0.40;0.30;;;17.50;96.90;;;;;;4972806;28;20385;-75
2021/06/16 00:51:31;;;;;;;0.40;0.20;;;17.60;96.90;;;;;;4971989;28;20873;-76
2021/06/16 00:53:56;;;;;;;0.40;0.20;;;17.60;96.80;;;;;;4972247;28;21659;-76
2021/06/16 00:56:22;;;;;;;0.40;0.20;;;17.60;96.70;;;;;;4972047;28;20891;-76
2021/06/16 00:58:48;;;;;;;0.40;0.30;;;17.60;96.80;;;;;;4972482;28;20479;-76
2021/06/16 01:01:24;;;;;;;0.40;0.30;;;17.60;97.20;;;;;;4972221;28;20863;-75
2021/06/16 01:04:02;;;;;;;0.40;0.20;;;17.50;96.80;;;;;;4972747;28;20396;-76
2021/06/16 01:06:41;;;;;;;0.40;0.30;;;17.50;97.00;;;;;;4971218;28;20428;-75
2021/06/16 01:09:35;;;;;;;0.40;0.20;;;17.60;96.70;;;;;;4972362;28;20787;-75
2021/06/16 01:12:19;;;;;;;0.40;0.30;;;17.50;97.20;;;;;;4972390;28;20463;-76
2021/06/16 01:15:10;;;;;;;0.40;0.20;;;17.40;96.90;;;;;;4971939;28;20942;-76
2021/06/16 01:17:47;;;;;;;0.40;0.30;;;17.50;97.50;;;;;;4971729;28;20396;-75
2021/06/16 01:20:32;;;;;;;0.40;0.30;;;17.50;97.70;;;;;;4972132;28;20397;-75
2021/06/16 01:23:22;;;;;;;0.40;0.20;;;17.40;97.00;;;;;;4986654;28;20415;-76
2021/06/16 01:26:03;;;;;;;0.40;0.30;;;17.50;98.70;;;;;;4971778;28;20408;-75
2021/06/16 01:28:38;;;;;;;0.40;0.20;;;17.50;98.50;;;;;;4986324;28;20469;-76
2021/06/16 01:31:05;;;;;;;0.40;0.20;;;17.40;97.50;;;;;;4972230;28;20396;-76
2021/06/16 01:33:32;;;;;;;0.40;0.20;;;17.40;98.40;;;;;;4971371;28;20483;-76
2021/06/16 01:35:59;;;;;;;0.40;0.30;;;17.40;98.00;;;;;;4971875;28;20424;-76
2021/06/16 01:38:25;;;;;;;0.40;0.20;;;17.40;98.00;;;;;;4971865;28;20450;-78
2021/06/16 01:40:54;;;;;;;0.40;0.30;;;17.50;97.50;;;;;;4971357;28;20401;-76
2021/06/16 01:43:22;;;;;;;0.40;0.30;;;17.50;98.00;;;;;;4971306;28;20426;-76
2021/06/16 01:45:49;;;;;;;0.40;0.30;;;17.50;97.70;;;;;;4971476;28;20388;-75
2021/06/16 01:48:18;;;;;;;0.40;0.30;;;17.30;98.90;;;;;;4971674;28;20384;-75
2021/06/16 01:50:46;;;;;;;0.40;0.30;;;17.30;98.90;;;;;;4985489;28;20980;-75
2021/06/16 01:53:13;;;;;;;0.40;0.30;;;17.30;99.80;;;;;;4953809;28;20734;-75
2021/06/16 01:55:40;;;;;;;0.40;0.30;;;17.50;99.90;;;;;;4970492;28;20504;-75
2021/06/16 01:58:07;;;;;;;0.40;0.30;;;17.40;99.90;;;;;;4971469;28;20493;-75
2021/06/16 02:00:37;;;;;;;0.40;0.20;;;17.40;99.00;;;;;;4969899;28;20404;-75
2021/06/16 02:03:03;;;;;;;0.40;0.30;;;17.30;99.90;;;;;;4971054;28;20400;-76
2021/06/16 02:05:31;;;;;;;0.40;0.30;;;17.40;99.80;;;;;;4970947;28;20384;-76
2021/06/16 02:08:03;;;;;;;0.40;0.20;;;17.30;99.90;;;;;;4971082;28;20431;-76
2021/06/16 02:10:34;;;;;;;0.40;0.30;;;17.20;99.90;;;;;;4970094;28;20407;-76
2021/06/16 02:13:04;;;;;;;0.40;0.30;;;17.20;99.90;;;;;;4971049;28;20467;-76
2021/06/16 02:15:36;;;;;;;0.40;0.20;;;17.40;99.90;;;;;;4951563;28;20419;-76
2021/06/16 02:18:04;;;;;;;0.40;0.30;;;17.30;99.80;;;;;;4970765;28;20396;-76
2021/06/16 02:20:30;;;;;;;0.40;0.20;;;17.40;99.80;;;;;;4973169;28;20389;-76
2021/06/16 02:22:56;;;;;;;0.40;0.20;;;17.40;99.90;;;;;;4977999;28;20777;-75
2021/06/16 02:25:22;;;;;;;0.40;0.20;;;17.50;99.90;;;;;;4982519;28;20400;-75
2021/06/16 02:27:49;;;;;;;0.40;0.20;;;17.50;99.90;;;;;;4955625;28;20907;-75
2021/06/16 02:30:16;;;;;;;0.40;0.30;;;17.50;99.80;;;;;;4973318;28;20967;-75
2021/06/16 02:32:42;;;;;;;0.40;0.22;;;17.50;99.90;;;;;;4971981;28;20435;-75
2021/06/16 02:35:08;;;;;;;0.40;0.30;;;17.50;99.90;;;;;;4955839;28;20517;-75
2021/06/16 02:37:42;;;;;;;0.40;0.20;;;17.50;99.90;;;;;;4955416;28;20880;-75
2021/06/16 02:40:14;;;;;;;0.40;0.20;;;17.50;99.90;;;;;;4988676;28;20411;-75
2021/06/16 02:42:45;;;;;;;0.40;0.30;;;17.50;99.90;;;;;;4972481;28;20392;-76
2021/06/16 02:45:12;;;;;;;0.40;0.20;;;17.50;99.90;;;;;;4973572;28;20730;-76
2021/06/16 02:47:42;;;;;;;0.40;0.30;;;17.40;99.90;;;;;;4987331;28;20415;-76
2021/06/16 02:50:11;;;;;;;0.40;0.30;;;17.30;99.90;;;;;;4973290;28;20479;-75
2021/06/16 02:52:40;;;;;;;0.40;0.20;;;17.30;99.90;;;;;;4987652;28;20399;-75
2021/06/16 02:55:07;;;;;;;0.40;0.30;;;17.20;99.90;;;;;;4973278;28;20459;-76
2021/06/16 02:57:35;;;;;;;0.40;0.30;;;17.20;99.90;;;;;;4972275;28;20392;-76
2021/06/16 03:00:05;;;;;;;0.40;0.20;;;17.10;99.90;;;;;;4988005;28;20428;-76
2021/06/16 03:02:31;;;;;;;0.40;0.30;;;16.90;99.90;;;;;;4955128;28;20893;-77
2021/06/16 03:04:58;;;;;;;0.40;0.30;;;16.90;99.90;;;;;;4973046;28;20461;-75
2021/06/16 03:07:25;;;;;;;0.40;0.30;;;16.90;99.90;;;;;;4973034;28;20467;-75
2021/06/16 03:09:51;;;;;;;0.40;0.30;;;16.80;99.90;;;;;;4972784;28;20399;-75
2021/06/16 03:12:20;;;;;;;0.40;0.30;;;16.70;99.90;;;;;;4972507;28;20396;-75
2021/06/16 03:14:48;;;;;;;0.40;0.30;;;16.80;99.90;;;;;;4954976;28;795540;-77
2021/06/16 03:17:17;;;;;;;0.40;0.30;;;16.90;99.90;;;;;;4978092;28;20400;-75
2021/06/16 03:19:45;;;;;;;0.40;0.20;;;17.00;99.90;;;;;;4973169;28;20388;-76
2021/06/16 03:22:11;;;;;;;0.40;0.30;;;16.90;99.90;;;;;;4973429;28;20440;-76
2021/06/16 03:24:42;;;;;;;0.40;0.30;;;17.00;99.90;;;;;;4986428;28;20400;-75
2021/06/16 03:27:08;;;;;;;0.40;0.20;;;17.00;99.90;;;;;;4973868;28;20400;-76
2021/06/16 03:29:34;;;;;;;0.40;0.20;;;17.00;99.90;;;;;;4973289;28;20853;-76
2021/06/16 03:32:07;;;;;;;0.40;0.20;;;16.90;99.90;;;;;;4973994;28;20400;-75
2021/06/16 03:34:36;;;;;;;0.50;0.40;;;16.80;99.90;;;;;;4973519;28;20432;-76
2021/06/16 03:37:04;;;;;;;0.40;0.30;;;16.80;99.90;;;;;;4954708;29;20422;-76
2021/06/16 03:39:31;;;;;;;0.40;0.20;;;16.80;99.90;;;;;;4967211;28;20467;-76
2021/06/16 03:41:57;;;;;;;0.40;0.20;;;16.70;99.90;;;;;;4974047;28;20502;-75
2021/06/16 03:44:25;;;;;;;0.40;0.20;;;16.70;99.90;;;;;;4973618;28;20411;-76
2021/06/16 03:46:53;;;;;;;0.40;0.30;;;16.70;99.90;;;;;;4973350;28;20883;-75
2021/06/16 03:49:20;;;;;;;0.40;0.30;;;16.70;99.90;;;;;;4973753;28;20489;-75
2021/06/16 03:51:46;;;;;;;0.40;0.30;;;16.70;99.90;;;;;;4972952;28;20401;-75
2021/06/16 03:54:12;;;;;;;0.40;0.30;;;16.70;99.90;;;;;;4974047;28;20518;-76
2021/06/16 03:56:43;;;;;;;0.40;0.30;;;16.70;99.90;;;;;;4972843;28;20392;-75
2021/06/16 03:59:10;;;;;;;0.40;0.30;;;16.70;99.90;;;;;;4973471;28;20400;-76
2021/06/16 04:01:40;;;;;;;0.40;0.30;;;16.60;99.90;;;;;;4955041;28;20830;-75
2021/06/16 04:04:07;;;;;;;0.40;0.30;;;16.70;99.90;;;;;;4969902;28;20412;-76
2021/06/16 04:06:37;;;;;;;0.40;0.30;;;16.70;99.90;;;;;;4973363;28;20689;-76
2021/06/16 04:09:04;;;;;;;0.40;0.30;;;16.70;99.90;;;;;;4961048;28;20409;-77
2021/06/16 04:11:31;;;;;;;0.40;0.30;;;16.60;99.90;;;;;;4959988;28;20402;-76
2021/06/16 04:13:57;;;;;;;0.40;0.20;;;16.70;99.90;;;;;;4948693;28;20424;-77
2021/06/16 04:16:27;;;;;;;0.40;0.30;;;16.70;99.90;;;;;;4960352;28;20408;-77
2021/06/16 04:18:53;;;;;;;0.40;0.30;;;16.80;99.90;;;;;;4959922;28;20419;-77
2021/06/16 04:21:21;;;;;;;0.40;0.20;;;16.80;99.90;;;;;;4960687;28;20479;-76
2021/06/16 04:23:50;;;;;;;0.40;0.30;;;16.80;99.90;;;;;;4958026;28;20412;-77
2021/06/16 04:26:18;;;;;;;0.40;0.20;;;16.80;99.90;;;;;;4961208;28;20479;-76
2021/06/16 04:28:43;;;;;;;0.40;0.20;;;16.90;99.90;;;;;;4959397;28;20546;-76
2021/06/16 04:31:10;;;;;;;0.40;0.20;;;16.90;99.90;;;;;;4950714;28;20404;-78
2021/06/16 04:33:36;;;;;;;0.40;0.20;;;16.90;99.90;;;;;;4946326;28;20706;-77
2021/06/16 04:36:03;;;;;;;0.40;0.30;;;16.90;99.90;;;;;;4959975;28;20426;-77
2021/06/16 04:38:29;;;;;;;0.40;0.30;;;17.00;99.90;;;;;;4960450;28;20547;-76
2021/06/16 04:40:54;;;;;;;0.40;0.30;;;17.00;99.90;;;;;;4948647;28;20507;-76
2021/06/16 04:43:20;;;;;;;0.40;0.20;;;17.10;99.90;;;;;;4958036;28;20412;-76
2021/06/16 04:45:46;;;;;;;0.40;0.30;;;17.10;99.90;;;;;;4960209;28;20407;-77
2021/06/16 04:48:12;;;;;;;0.40;0.20;;;17.20;99.90;;;;;;4949337;28;21307;-76
2021/06/16 04:50:38;;;;;;;0.40;0.30;;;17.20;99.90;;;;;;4964423;28;20954;-77
2021/06/16 04:53:04;;;;;;;0.40;0.30;;;17.20;99.90;;;;;;4972817;28;20412;-77
2021/06/16 04:55:29;;;;;;;0.40;0.30;;;17.30;99.90;;;;;;4959707;28;20847;-77
2021/06/16 04:57:55;;;;;;;0.40;0.20;;;17.30;99.90;;;;;;4959823;28;20961;-78
2021/06/16 05:00:22;;;;;;;0.40;0.20;;;17.40;99.90;;;;;;4958440;28;20396;-76
2021/06/16 05:02:53;;;;;;;3.70;0.60;;;17.40;99.90;;;;;;4957462;28;20511;-77
2021/06/16 05:05:19;;;;;;;0.40;0.30;;;17.60;99.90;;;;;;4956479;28;20514;-78
2021/06/16 05:07:45;;;;;;;0.40;0.30;;;17.60;99.90;;;;;;4959838;28;20780;-78
2021/06/16 05:10:11;;;;;;;0.40;0.30;;;17.50;99.90;;;;;;4954710;28;20487;-77
2021/06/16 05:12:37;;;;;;;0.40;0.20;;;17.50;99.90;;;;;;4955845;28;20464;-79
2021/06/16 05:15:03;;;;;;;0.40;0.30;;;17.60;99.90;;;;;;4958180;28;20575;-78
2021/06/16 05:17:29;;;;;;;0.40;0.30;;;17.70;99.90;;;;;;4959643;28;20577;-78
2021/06/16 05:19:57;;;;;;;0.40;0.30;;;17.70;99.90;;;;;;4957249;28;20396;-77
2021/06/16 05:22:25;;;;;;;0.40;0.30;;;17.80;99.90;;;;;;4953946;28;20434;-77
2021/06/16 05:24:51;;;;;;;0.40;0.30;;;17.80;99.90;;;;;;4954408;28;20412;-77
2021/06/16 05:27:17;;;;;;;0.40;0.30;;;17.90;99.90;;;;;;4944628;28;20503;-76
2021/06/16 05:29:44;;;;;;;0.40;0.30;;;17.90;99.90;;;;;;4957297;28;21764;-77
2021/06/16 05:32:10;;;;;;;0.40;0.20;;;18.00;99.90;;;;;;4956878;28;20462;-77
2021/06/16 05:34:36;;;;;;;0.40;0.20;;;17.90;99.90;;;;;;4958151;28;20925;-78
2021/06/16 05:37:02;;;;;;;0.40;0.30;;;18.00;99.90;;;;;;4957971;28;20393;-77
2021/06/16 05:39:28;;;;;;;0.40;0.20;;;18.00;99.90;;;;;;4979659;28;20483;-76
2021/06/16 05:41:54;;;;;;;0.40;0.20;;;18.00;99.90;;;;;;4972311;28;20400;-77
2021/06/16 05:44:19;;;;;;;0.40;0.30;;;18.00;99.90;;;;;;4955387;28;20411;-77
2021/06/16 05:46:45;;;;;;;0.40;0.30;;;18.00;99.90;;;;;;4957717;28;21184;-79
2021/06/16 05:49:11;;;;;;;0.40;0.30;;;18.00;99.90;;;;;;4959694;28;20479;-78
2021/06/16 05:51:37;;;;;;;0.40;0.30;;;18.10;99.90;;;;;;4958971;28;20428;-78
2021/06/16 05:54:03;;;;;;;0.40;0.20;;;18.20;99.90;;;;;;4957604;28;20586;-77
2021/06/16 05:56:29;;;;;;;0.40;0.20;;;18.30;99.90;;;;;;4959195;28;20408;-78
2021/06/16 05:58:55;;;;;;;0.40;0.33;;;18.30;99.90;;;;;;4959104;28;20490;-77
2021/06/16 06:01:20;;;;;;;0.40;0.30;;;18.50;99.90;;;;;;4959531;28;20410;-77
2021/06/16 06:03:46;;;;;;;0.40;0.30;;;18.50;99.90;;;;;;4956939;28;20803;-78
2021/06/16 06:06:12;;;;;;;0.40;0.30;;;18.50;99.90;;;;;;4958508;28;20797;-78
2021/06/16 06:08:37;;;;;;;0.40;0.30;;;18.60;99.90;;;;;;4948312;28;20439;-79
2021/06/16 06:11:03;;;;;;;0.40;0.20;;;18.70;99.90;;;;;;4957329;28;20772;-78
2021/06/16 06:13:29;;;;;;;0.40;0.20;;;18.70;99.90;;;;;;4944915;28;21015;-79
2021/06/16 06:15:54;;;;;;;0.40;0.20;;;18.80;99.90;;;;;;4957268;28;20430;-79
2021/06/16 06:18:20;;;;;;;0.40;0.30;;;18.90;99.90;;;;;;4958572;28;20412;-79
2021/06/16 06:20:46;;;;;;;0.40;0.20;;;19.00;99.90;;;;;;4957228;28;20404;-79
2021/06/16 06:23:12;;;;;;;0.40;0.20;;;19.10;99.90;;;;;;4976842;28;20551;-79
2021/06/16 06:25:37;;;;;;;0.40;0.20;;;19.10;99.90;;;;;;4958111;28;20900;-79
2021/06/16 06:28:04;;;;;;;0.40;0.30;;;19.20;99.90;;;;;;4957421;28;21634;-79
2021/06/16 06:30:30;;;;;;;0.40;0.20;;;19.30;99.90;;;;;;4957378;28;20388;-79
2021/06/16 06:32:55;;;;;;;0.40;0.30;;;19.40;99.90;;;;;;4955865;28;20455;-79
2021/06/16 06:35:21;;;;;;;0.40;0.30;;;19.40;99.90;;;;;;4958018;28;20432;-79
2021/06/16 06:37:47;;;;;;;0.40;0.30;;;19.40;99.90;;;;;;4956849;28;20439;-79
2021/06/16 06:40:13;;;;;;;0.40;0.30;;;19.60;99.90;;;;;;4958318;28;20458;-79
2021/06/16 06:42:39;;;;;;;0.40;0.30;;;19.70;99.90;;;;;;4960400;28;20836;-80
2021/06/16 06:45:06;;;;;;;0.40;0.20;;;19.80;99.90;;;;;;4947077;28;20507;-79
2021/06/16 06:47:32;;;;;;;0.40;0.20;;;19.90;99.90;;;;;;4946126;28;21501;-77
2021/06/16 06:49:57;;;;;;;0.40;0.30;;;20.00;99.90;;;;;;4962474;28;20408;-78
2021/06/16 06:52:23;;;;;;;0.40;0.20;;;20.00;99.90;;;;;;4957178;28;21359;-76
2021/06/16 06:54:49;;;;;;;0.40;0.30;;;20.10;99.90;;;;;;4956791;28;20416;-79
2021/06/16 06:57:15;;;;;;;0.40;0.20;;;20.30;99.90;;;;;;4961435;28;20435;-79
2021/06/16 06:59:41;;;;;;;0.40;0.30;;;20.30;99.90;;;;;;4956222;28;20820;-79
2021/06/16 07:02:07;;;;;;;0.40;0.30;;;20.50;99.90;;;;;;4955830;28;20919;-79
2021/06/16 07:04:33;;;;;;;0.40;0.20;;;20.60;99.90;;;;;;4958633;28;20408;-78
2021/06/16 07:06:58;;;;;;;0.40;0.30;;;20.70;99.90;;;;;;4965434;28;20435;-78
2021/06/16 07:09:24;;;;;;;0.40;0.20;;;20.70;99.90;;;;;;4960591;28;20404;-78
2021/06/16 07:11:51;;;;;;;0.40;0.20;;;20.80;99.90;;;;;;4960856;28;21836;-77
2021/06/16 07:14:17;;;;;;;0.40;0.30;;;20.90;99.80;;;;;;4942466;28;21498;-78
2021/06/16 07:16:43;;;;;;;0.40;0.30;;;21.20;97.80;;;;;;4941212;29;20406;-78
2021/06/16 07:19:09;;;;;;;0.40;0.20;;;21.60;95.50;;;;;;4941060;28;20916;-77
2021/06/16 07:21:34;;;;;;;0.40;0.20;;;21.60;94.50;;;;;;4941294;29;20406;-77
2021/06/16 07:24:00;;;;;;;0.40;0.20;;;21.70;92.20;;;;;;4939074;29;20483;-79
2021/06/16 07:26:26;;;;;;;0.40;0.30;;;21.90;93.10;;;;;;4956999;28;20410;-77
2021/06/16 07:28:51;;;;;;;0.40;0.30;;;21.90;90.80;;;;;;4941037;29;20870;-78
2021/06/16 07:31:17;;;;;;;0.40;0.20;;;21.90;91.00;;;;;;4956141;28;20488;-77
2021/06/16 07:33:43;;;;;;;0.40;0.30;;;22.00;91.60;;;;;;4939133;29;20759;-77
2021/06/16 07:36:08;;;;;;;0.40;0.30;;;22.20;91.50;;;;;;4941137;29;20523;-78
2021/06/16 07:38:34;;;;;;;0.40;0.30;;;22.30;91.40;;;;;;4955792;28;20406;-74
2021/06/16 07:41:00;;;;;;;0.40;0.20;;;22.40;91.20;;;;;;4940663;29;20887;-78
2021/06/16 07:43:25;;;;;;;0.40;0.25;;;22.60;91.20;;;;;;4953717;28;20426;-78
2021/06/16 07:45:51;;;;;;;0.40;0.30;;;22.40;92.20;;;;;;4940520;29;20957;-78
2021/06/16 07:48:17;;;;;;;0.40;0.30;;;22.60;91.50;;;;;;4941989;28;20404;-78
2021/06/16 07:50:42;;;;;;;0.40;0.20;;;22.60;91.70;;;;;;4942059;29;20410;-79
2021/06/16 07:53:09;;;;;;;0.40;0.30;;;22.60;91.40;;;;;;4938556;28;20406;-77
2021/06/16 07:55:36;;;;;;;0.50;0.40;;;22.80;91.60;;;;;;4941468;29;20875;-76
2021/06/16 07:58:02;;;;;;;0.40;0.30;;;22.80;91.80;;;;;;4940245;29;20397;-78
2021/06/16 08:00:30;;;;;;;0.40;0.20;;;22.90;91.60;;;;;;4940586;28;20894;-77
2021/06/16 08:02:56;;;;;;;0.40;0.20;;;23.00;90.90;;;;;;4939092;29;20547;-78
2021/06/16 08:05:22;;;;;;;0.40;0.30;;;22.90;91.20;;;;;;4941279;29;20870;-75
2021/06/16 08:07:47;;;;;;;0.40;0.30;;;23.00;89.40;;;;;;4940078;29;21261;-76
2021/06/16 08:10:13;;;;;;;0.40;0.20;;;23.30;85.70;;;;;;4940814;29;20394;-77
2021/06/16 08:12:40;;;;;;;0.40;0.30;;;23.20;86.50;;;;;;4938311;29;20413;-73
2021/06/16 08:15:07;;;;;;;0.40;0.30;;;23.40;85.70;;;;;;4953193;28;20531;-77
2021/06/16 08:17:33;;;;;;;0.40;0.30;;;23.60;84.60;;;;;;4965563;28;20415;-76
2021/06/16 08:19:59;;;;;;;0.40;0.30;;;23.80;86.30;;;;;;4960019;28;20388;-77
2021/06/16 08:22:24;;;;;;;0.40;0.30;;;23.70;87.00;;;;;;4957731;28;21338;-76
2021/06/16 08:24:50;;;;;;;0.40;0.20;;;23.80;87.60;;;;;;4958920;28;21346;-75
2021/06/16 08:27:16;;;;;;;0.40;0.30;;;23.70;86.20;;;;;;4959889;28;20899;-77
2021/06/16 08:29:42;;;;;;;0.47;0.30;;;23.80;86.10;;;;;;4959463;28;20412;-75
2021/06/16 08:32:08;;;;;;;0.40;0.20;;;23.90;85.20;;;;;;4957196;28;20815;-76
2021/06/16 08:34:36;;;;;;;0.40;0.30;;;24.00;85.70;;;;;;4959301;28;20462;-76
2021/06/16 08:37:03;;;;;;;0.40;0.30;;;24.10;86.50;;;;;;4958591;28;21112;-77
2021/06/16 08:39:29;;;;;;;0.40;0.30;;;24.00;86.60;;;;;;4959512;28;20441;-77
2021/06/16 08:41:55;;;;;;;0.40;0.20;;;24.00;86.50;;;;;;4958498;28;20487;-76
2021/06/16 08:44:20;;;;;;;0.40;0.30;;;24.10;84.30;;;;;;4956599;28;21061;-75
2021/06/16 08:46:48;;;;;;;0.40;0.30;;;24.10;83.50;;;;;;4959304;28;20466;-78
2021/06/16 08:49:14;;;;;;;0.40;0.20;;;24.10;84.70;;;;;;4959144;28;20415;-76
2021/06/16 08:51:39;;;;;;;0.40;0.20;;;24.30;82.00;;;;;;4960168;28;20396;-77
2021/06/16 08:54:07;;;;;;;0.40;0.30;;;24.30;80.60;;;;;;4961345;28;20439;-76
2021/06/16 08:56:33;;;;;;;0.40;0.30;;;24.40;81.50;;;;;;4981325;28;20495;-77
2021/06/16 08:58:59;;;;;;;0.40;0.30;;;24.50;81.70;;;;;;4947744;28;20419;-76
2021/06/16 09:01:25;;;;;;;0.40;0.20;;;24.60;80.60;;;;;;4959051;28;20407;-76
2021/06/16 09:03:51;;;;;;;0.40;0.30;;;24.70;80.70;;;;;;4955759;28;20396;-73
2021/06/16 09:06:17;;;;;;;0.40;0.30;;;24.70;80.70;;;;;;4958817;28;20419;-73
2021/06/16 09:09:01;;;;;;;0.40;0.20;;;24.90;79.90;;;;;;4981246;28;20400;-74
2021/06/16 09:11:29;;;;;;;0.40;0.30;;;24.90;79.30;;;;;;4959048;28;20413;-76
2021/06/16 09:14:18;;;;;;;0.40;0.20;;;24.90;78.80;;;;;;4954742;28;20961;-78
2021/06/16 09:16:45;;;;;;;0.40;0.30;;;24.80;79.50;;;;;;4958760;28;20396;-76
2021/06/16 09:19:32;;;;;;;0.40;0.30;;;24.90;79.40;;;;;;4957889;28;20747;-79
2021/06/16 09:22:01;;;;;;;0.40;0.20;;;25.00;80.20;;;;;;4947001;28;20412;-76
2021/06/16 09:25:02;;;;;;;0.40;0.20;;;24.90;79.30;;;;;;4956663;28;20412;-76
2021/06/16 09:27:47;;;;;;;0.40;0.30;;;25.00;78.20;;;;;;4930075;28;20583;-77
2021/06/16 09:30:19;;;;;;;0.40;0.30;;;25.10;76.60;;;;;;4947582;28;20973;-76
2021/06/16 09:32:58;;;;;;;0.40;0.30;;;25.20;75.40;;;;;;4971707;28;20899;-78
2021/06/16 09:35:32;;;;;;;0.40;0.22;;;25.30;75.10;;;;;;4958558;28;20422;-76
2021/06/16 09:38:01;;;;;;;0.40;0.30;;;25.60;74.50;;;;;;4957684;28;20418;-74
2021/06/16 09:40:36;;;;;;;0.40;0.30;;;25.50;74.90;;;;;;4959103;28;20466;-79
2021/06/16 09:43:13;;;;;;;0.40;0.20;;;25.50;74.30;;;;;;4955144;28;20787;-77
2021/06/16 09:45:41;;;;;;;0.40;0.20;;;25.50;73.60;;;;;;4957573;28;20504;-78
2021/06/16 09:48:31;;;;;;;0.40;0.30;;;25.50;77.30;;;;;;4958078;28;20531;-78
2021/06/16 09:51:09;;;;;;;0.40;0.20;;;25.50;75.60;;;;;;4946692;28;20451;-77
2021/06/16 09:53:52;;;;;;;0.40;0.30;;;25.60;78.40;;;;;;4956307;28;20408;-75
2021/06/16 09:56:18;;;;;;;0.40;0.30;;;25.70;76.70;;;;;;4958157;28;20493;-77
2021/06/16 09:58:44;;;;;;;0.40;0.30;;;25.80;74.40;;;;;;4957682;28;20602;-74
2021/06/16 10:01:09;;;;;;;0.40;0.30;;;25.80;73.90;;;;;;4958090;28;20391;-77
2021/06/16 10:03:35;;;;;;;0.40;0.20;;;26.10;72.60;;;;;;4962033;28;20696;-76
2021/06/16 10:06:11;;;;;;;0.40;0.20;;;26.10;72.80;;;;;;4957750;28;20407;-77
2021/06/16 10:08:39;;;;;;;0.40;0.30;;;26.10;72.80;;;;;;4972810;28;20428;-76
2021/06/16 10:11:19;;;;;;;0.40;0.30;;;26.20;74.40;;;;;;4944849;28;20415;-76
2021/06/16 10:13:46;;;;;;;0.50;0.30;;;26.40;73.50;;;;;;4954918;28;20439;-77
2021/06/16 10:16:13;;;;;;;0.40;0.30;;;26.30;72.30;;;;;;4957226;28;20416;-78
2021/06/16 10:18:47;;;;;;;0.40;0.30;;;26.20;73.30;;;;;;4958086;28;20434;-79
2021/06/16 10:21:15;;;;;;;0.40;0.20;;;26.50;71.50;;;;;;4958120;28;20412;-77
2021/06/16 10:23:41;;;;;;;0.40;0.30;;;26.60;71.90;;;;;;4955100;28;20479;-76
2021/06/16 10:26:31;;;;;;;0.40;0.20;;;26.70;70.70;;;;;;4957293;28;20527;-78
2021/06/16 10:29:01;;;;;;;0.40;0.30;;;26.90;72.20;;;;;;4957646;28;20423;-73
2021/06/16 10:31:39;;;;;;;0.40;0.20;;;26.90;70.10;;;;;;4958329;28;20408;-77
2021/06/16 10:34:05;;;;;;;0.40;0.20;;;26.80;67.80;;;;;;4977505;28;20402;-76
2021/06/16 10:36:32;;;;;;;0.40;0.20;;;26.90;68.90;;;;;;4957588;28;20411;-74
2021/06/16 10:38:57;;;;;;;0.40;0.30;;;27.10;69.40;;;;;;4957499;28;20400;-77
2021/06/16 10:41:41;;;;;;;0.50;0.40;;;27.20;67.10;;;;;;4961509;28;20411;-77
2021/06/16 10:44:20;;;;;;;0.40;0.20;;;27.10;69.20;;;;;;4973000;28;21160;-79
2021/06/16 10:46:59;;;;;;;0.40;0.20;;;27.20;72.20;;;;;;4976545;28;20438;-77
2021/06/16 10:49:54;;;;;;;0.40;0.30;;;27.30;69.70;;;;;;4962069;28;20392;-77
2021/06/16 10:52:23;;;;;;;0.40;0.20;;;27.40;66.70;;;;;;4952864;28;20420;-78
2021/06/16 10:54:58;;;;;;;0.40;0.30;;;27.60;69.00;;;;;;4961272;28;20427;-78
2021/06/16 10:57:25;;;;;;;0.40;0.30;;;27.50;66.70;;;;;;4960923;28;20400;-77
2021/06/16 10:59:51;;;;;;;0.40;0.30;;;27.50;64.90;;;;;;4961611;28;20392;-75
2021/06/16 11:02:38;;;;;;;0.40;0.30;;;27.50;65.60;;;;;;4957890;28;20408;-78
2021/06/16 11:05:30;;;;;;;0.40;0.30;;;27.70;64.70;;;;;;4949925;28;20428;-79
2021/06/16 11:07:56;;;;;;;0.50;0.40;;;28.00;64.40;;;;;;4961709;28;20400;-80
2021/06/16 11:10:23;;;;;;;0.40;0.20;;;28.20;63.80;;;;;;4961266;28;20407;-73
2021/06/16 11:12:53;;;;;;;0.40;0.20;;;28.20;63.00;;;;;;4958891;28;20393;-76
2021/06/16 11:15:25;;;;;;;0.40;0.30;;;28.30;64.30;;;;;;4949589;28;20519;-76
2021/06/16 11:17:56;;;;;;;0.40;0.30;;;28.40;63.70;;;;;;4975587;28;20416;-76
2021/06/16 11:20:24;;;;;;;0.40;0.30;;;28.70;63.60;;;;;;4949967;28;20554;-76
2021/06/16 11:22:59;;;;;;;0.40;0.20;;;29.00;64.50;;;;;;4959207;28;20483;-79
2021/06/16 11:25:31;;;;;;;0.40;0.30;;;29.10;61.70;;;;;;4960499;28;20440;-77
2021/06/16 11:28:09;;;;;;;0.40;0.20;;;29.10;59.90;;;;;;4960433;28;20412;-77
2021/06/16 11:30:47;;;;;;;0.40;0.30;;;29.40;59.40;;;;;;4960272;28;21178;-74
2021/06/16 11:33:19;;;;;;;0.40;0.20;;;29.40;58.20;;;;;;4962771;28;20570;-78
2021/06/16 11:35:51;;;;;;;0.40;0.20;;;29.60;59.40;;;;;;4959761;28;20460;-75
2021/06/16 11:38:17;;;;;;;0.40;0.27;;;29.90;58.30;;;;;;4959363;28;20404;-77
2021/06/16 11:41:16;;;;;;;0.40;0.30;;;30.10;58.00;;;;;;4959955;28;20416;-78
2021/06/16 11:43:47;;;;;;;0.45;0.30;;;30.30;58.40;;;;;;4958826;28;20452;-80
2021/06/16 11:46:33;;;;;;;0.50;0.30;;;30.70;58.30;;;;;;4959549;28;20478;-79
2021/06/16 11:49:20;;;;;;;0.50;0.20;;;31.30;56.70;;;;;;4959062;28;20491;-78
2021/06/16 11:51:50;;;;;;;0.40;0.30;;;31.60;54.70;;;;;;4960307;28;20399;-78
2021/06/16 11:54:30;;;;;;;0.40;0.30;;;31.70;54.70;;;;;;4957998;28;20420;-78
2021/06/16 11:57:14;;;;;;;0.40;0.30;;;31.70;50.30;;;;;;4975243;28;20423;-75
2021/06/16 11:59:45;;;;;;;0.40;0.30;;;31.90;51.50;;;;;;4960328;28;20411;-75
2021/06/16 12:02:19;;;;;;;0.40;0.20;;;32.40;49.90;;;;;;4956811;28;20432;-78
2021/06/16 12:05:05;;;;;;;0.40;0.20;;;32.50;51.80;;;;;;4960525;28;20412;-78
2021/06/16 12:07:37;;;;;;;0.40;0.30;;;32.30;52.00;;;;;;4960879;28;20408;-78
2021/06/16 12:10:25;;;;;;;0.53;0.33;;;32.70;49.80;;;;;;4959799;28;20493;-74
2021/06/16 12:12:55;;;;;;;0.40;0.20;;;31.60;48.40;;;;;;4957957;28;20405;-75
2021/06/16 12:15:23;;;;;;;0.40;0.20;;;31.60;49.80;;;;;;4958940;28;20494;-79
2021/06/16 12:18:02;;;;;;;0.40;0.30;;;31.50;49.50;;;;;;4960375;28;20431;-79
2021/06/16 12:20:37;;;;;;;0.40;0.20;;;31.90;49.40;;;;;;4960736;28;20423;-79
2021/06/16 12:23:19;;;;;;;0.40;0.20;;;32.10;49.80;;;;;;4957233;28;20416;-82
2021/06/16 12:25:45;;;;;;;0.40;0.30;;;32.00;54.10;;;;;;4949606;28;20483;-80
2021/06/16 12:28:11;;;;;;;0.40;0.20;;;31.80;49.90;;;;;;4960004;28;20946;-80
2021/06/16 12:30:37;;;;;;;0.40;0.20;;;32.10;53.20;;;;;;4975366;28;20404;-76
2021/06/16 12:33:20;;;;;;;0.40;0.20;;;31.90;51.20;;;;;;4955619;28;20435;-81
2021/06/16 12:36:07;;;;;;;0.40;0.20;;;32.20;53.80;;;;;;4949905;28;20544;-81
2021/06/16 12:38:56;;;;;;;0.40;0.20;;;33.00;50.70;;;;;;4959261;28;20499;-80
2021/06/16 12:41:46;;;;;;;0.40;0.20;;;32.70;50.20;;;;;;4959003;28;20474;-80
2021/06/16 12:44:14;;;;;;;0.40;0.20;;;32.50;50.10;;;;;;4957422;28;20781;-82
2021/06/16 12:46:53;;;;;;;0.40;0.20;;;32.20;51.40;;;;;;4959501;28;20404;-80
2021/06/16 12:49:19;;;;;;;0.40;0.20;;;32.50;51.00;;;;;;4959111;28;20492;-80
2021/06/16 12:51:55;;;;;;;0.40;0.20;;;31.70;52.40;;;;;;4959913;28;20393;-80
2021/06/16 12:54:41;;;;;;;0.40;0.20;;;32.20;51.20;;;;;;4957358;28;20475;-77
2021/06/16 12:57:15;;;;;;;0.40;0.20;;;32.10;51.20;;;;;;4958523;28;20408;-81
2021/06/16 12:59:46;;;;;;;0.40;0.22;;;32.40;52.70;;;;;;4959560;28;20388;-80